createdAt,value
2017-10-02T00:01:27.140Z,5.78
2017-10-02T00:03:54.746Z,8.82
2017-10-02T00:06:23.056Z,7.00
2017-10-02T00:08:50.582Z,8.73
2017-10-02T00:11:18.517Z,7.80
2017-10-02T00:13:46.057Z,7.53
2017-10-02T00:16:13.595Z,7.35
2017-10-02T00:18:41.168Z,6.37
2017-10-02T00:21:08.751Z,6.68
2017-10-02T00:23:36.286Z,6.15
2017-10-02T00:26:04.177Z,7.30
2017-10-02T00:28:31.716Z,4.20
2017-10-02T00:30:59.298Z,6.53
2017-10-02T00:33:26.829Z,3.97
2017-10-02T00:35:54.404Z,6.28
2017-10-02T00:38:22.234Z,6.15
2017-10-02T00:40:50.950Z,6.18
2017-10-02T00:43:18.476Z,5.93
2017-10-02T00:45:46.780Z,6.93
2017-10-02T00:48:14.358Z,6.25
2017-10-02T00:50:41.932Z,6.68
2017-10-02T00:53:09.465Z,4.55
2017-10-02T00:55:37.364Z,6.05
2017-10-02T00:58:04.895Z,4.70
2017-10-02T01:00:32.438Z,4.05
2017-10-02T01:03:00.448Z,6.80
2017-10-02T01:05:27.980Z,5.65
2017-10-02T01:07:55.509Z,5.20
2017-10-02T01:10:23.854Z,4.53
2017-10-02T01:12:51.380Z,5.28
2017-10-02T01:15:19.969Z,6.50
2017-10-02T01:17:47.500Z,3.75
2017-10-02T01:20:19.616Z,5.45
2017-10-02T01:22:47.141Z,3.45
2017-10-02T01:25:14.683Z,4.47
2017-10-02T01:27:43.024Z,4.93
2017-10-02T01:30:10.596Z,5.25
2017-10-02T01:32:38.911Z,5.62
2017-10-02T01:35:07.638Z,5.45
2017-10-02T01:37:35.225Z,4.18
2017-10-02T01:40:02.933Z,4.87
2017-10-02T01:42:30.510Z,4.45
2017-10-02T01:44:58.042Z,5.20
2017-10-02T01:47:25.639Z,3.03
2017-10-02T01:49:53.173Z,3.80
2017-10-02T01:52:20.944Z,5.55
2017-10-02T01:54:48.787Z,5.43
2017-10-02T01:57:17.128Z,3.97
2017-10-02T01:59:44.661Z,6.28
2017-10-02T02:02:12.238Z,7.22
2017-10-02T02:04:39.770Z,4.82
2017-10-02T02:07:07.369Z,5.72
2017-10-02T02:09:34.902Z,3.50
2017-10-02T02:12:03.290Z,5.20
2017-10-02T02:14:30.815Z,4.97
2017-10-02T02:16:58.363Z,7.53
2017-10-02T02:19:25.953Z,5.55
2017-10-02T02:21:53.533Z,5.57
2017-10-02T02:24:21.069Z,6.43
2017-10-02T02:26:48.659Z,4.60
2017-10-02T02:29:16.194Z,4.87
2017-10-02T02:31:45.201Z,4.28
2017-10-02T02:34:12.739Z,7.18
2017-10-02T02:36:40.408Z,6.20
2017-10-02T02:39:07.943Z,6.20
2017-10-02T02:41:36.289Z,8.50
2017-10-02T02:44:03.825Z,3.83
2017-10-02T02:46:31.396Z,4.62
2017-10-02T02:48:58.933Z,4.57
2017-10-02T02:51:29.266Z,5.40
2017-10-02T02:53:56.811Z,4.55
2017-10-02T02:56:24.431Z,4.20
2017-10-02T02:58:52.732Z,7.80
2017-10-02T03:01:20.638Z,5.57
2017-10-02T03:03:48.174Z,5.00
2017-10-02T03:06:15.713Z,5.62
2017-10-02T03:08:44.164Z,4.10
2017-10-02T03:11:11.703Z,7.40
2017-10-02T03:13:39.276Z,3.92
2017-10-02T03:16:06.854Z,4.25
2017-10-02T03:18:34.384Z,5.20
2017-10-02T03:21:02.142Z,6.97
2017-10-02T03:23:29.669Z,4.53
2017-10-02T03:25:57.254Z,5.90
2017-10-02T03:28:24.785Z,5.12
2017-10-02T03:30:52.473Z,6.62
2017-10-02T03:33:20.016Z,9.90
2017-10-02T03:35:47.650Z,5.97
2017-10-02T03:38:16.084Z,4.55
2017-10-02T03:40:43.663Z,6.05
2017-10-02T03:43:11.203Z,7.28
2017-10-02T03:45:38.968Z,6.30
2017-10-02T03:48:06.497Z,6.35
2017-10-02T03:50:34.398Z,6.25
2017-10-02T03:53:01.938Z,5.18
2017-10-02T03:55:30.237Z,8.35
2017-10-02T03:57:57.821Z,5.47
2017-10-02T04:00:25.373Z,5.70
2017-10-02T04:02:53.226Z,7.97
2017-10-02T04:05:20.761Z,4.95
2017-10-02T04:07:48.349Z,6.37
2017-10-02T04:10:15.881Z,5.50
2017-10-02T04:12:43.462Z,5.32
2017-10-02T04:15:11.001Z,7.22
2017-10-02T04:17:38.630Z,5.97
2017-10-02T04:20:07.377Z,4.93
2017-10-02T04:22:34.909Z,5.72
2017-10-02T04:25:02.441Z,6.50
2017-10-02T04:27:31.429Z,6.25
2017-10-02T04:29:59.729Z,7.18
2017-10-02T04:32:27.266Z,4.93
2017-10-02T04:34:55.015Z,5.85
2017-10-02T04:37:22.554Z,6.47
2017-10-02T04:39:50.141Z,6.05
2017-10-02T04:42:17.834Z,4.95
2017-10-02T04:44:45.385Z,4.65
2017-10-02T04:47:13.296Z,4.95
2017-10-02T04:49:40.832Z,9.68
2017-10-02T04:52:08.374Z,6.47
2017-10-02T04:54:35.970Z,5.65
2017-10-02T04:57:03.502Z,5.57
2017-10-02T04:59:31.581Z,5.20
2017-10-02T05:01:59.117Z,6.50
2017-10-02T05:04:27.426Z,6.10
2017-10-02T05:06:55.312Z,7.57
2017-10-02T05:09:22.860Z,5.45
2017-10-02T05:11:50.401Z,7.00
2017-10-02T05:14:18.137Z,6.80
2017-10-02T05:16:46.449Z,8.93
2017-10-02T05:19:13.991Z,8.18
2017-10-02T05:21:41.574Z,5.80
2017-10-02T05:24:14.068Z,9.43
2017-10-02T05:26:41.597Z,5.87
2017-10-02T05:29:09.141Z,4.93
2017-10-02T05:31:37.781Z,5.40
2017-10-02T05:34:05.318Z,9.27
2017-10-02T05:36:32.897Z,5.85
2017-10-02T05:39:00.881Z,5.75
2017-10-02T05:41:29.259Z,5.30
2017-10-02T05:43:56.793Z,4.95
2017-10-02T05:46:24.397Z,7.00
2017-10-02T05:48:52.712Z,4.40
2017-10-02T05:51:20.255Z,4.85
2017-10-02T05:53:48.723Z,5.57
2017-10-02T05:56:17.028Z,7.43
2017-10-02T05:58:44.604Z,5.30
2017-10-02T06:01:12.143Z,6.03
2017-10-02T06:03:39.745Z,5.32
2017-10-02T06:06:07.278Z,7.00
2017-10-02T06:08:34.805Z,5.72
2017-10-02T06:11:05.080Z,5.43
2017-10-02T06:13:32.605Z,6.53
2017-10-02T06:16:00.136Z,5.50
2017-10-02T06:18:27.717Z,8.15
2017-10-02T06:20:56.014Z,6.43
2017-10-02T06:23:23.589Z,8.02
2017-10-02T06:25:51.125Z,5.78
2017-10-02T06:28:19.108Z,5.60
2017-10-02T06:30:46.644Z,6.30
2017-10-02T06:33:14.938Z,6.80
2017-10-02T06:35:42.667Z,4.55
2017-10-02T06:38:10.974Z,5.43
2017-10-02T06:40:38.565Z,6.45
2017-10-02T06:43:06.184Z,4.95
2017-10-02T06:45:34.472Z,6.18
2017-10-02T06:48:06.142Z,10.00
2017-10-02T06:50:33.675Z,4.80
2017-10-02T06:53:01.968Z,4.93
2017-10-02T06:55:29.553Z,4.55
2017-10-02T06:57:57.416Z,6.03
2017-10-02T07:00:24.952Z,8.50
2017-10-02T07:02:52.526Z,5.75
2017-10-02T07:05:20.053Z,6.05
2017-10-02T07:07:48.396Z,6.90
2017-10-02T07:10:15.929Z,4.75
2017-10-02T07:12:43.514Z,5.05
2017-10-02T07:15:12.592Z,6.47
2017-10-02T07:17:40.173Z,6.97
2017-10-02T07:20:07.753Z,4.53
2017-10-02T07:22:35.284Z,4.55
2017-10-02T07:25:04.070Z,4.25
2017-10-02T07:27:31.606Z,5.53
2017-10-02T07:29:59.325Z,7.20
2017-10-02T07:32:26.853Z,4.82
2017-10-02T07:34:54.428Z,5.15
2017-10-02T07:37:22.083Z,6.03
2017-10-02T07:39:49.661Z,3.90
2017-10-02T07:42:17.200Z,5.25
2017-10-02T07:44:44.922Z,4.60
2017-10-02T07:47:12.452Z,5.05
2017-10-02T07:49:41.145Z,8.43
2017-10-02T07:52:09.441Z,4.55
2017-10-02T07:54:36.996Z,5.25
2017-10-02T07:57:05.729Z,5.28
2017-10-02T07:59:33.274Z,5.35
2017-10-02T08:02:00.813Z,4.68
2017-10-02T08:04:28.714Z,4.87
2017-10-02T08:06:56.249Z,4.22
2017-10-02T08:09:23.835Z,4.30
2017-10-02T08:11:51.701Z,4.80
2017-10-02T08:14:19.234Z,4.72
2017-10-02T08:16:46.764Z,5.10
2017-10-02T08:19:15.236Z,10.85
2017-10-02T08:21:43.088Z,28.50
2017-10-02T08:24:10.624Z,53.80
2017-10-02T08:26:38.163Z,61.13
2017-10-02T08:29:06.309Z,82.95
2017-10-02T08:31:34.610Z,48.75
2017-10-02T08:34:02.164Z,14.52
2017-10-02T08:36:29.965Z,11.18
2017-10-02T08:38:57.496Z,7.68
2017-10-02T08:41:25.068Z,5.37
2017-10-02T08:43:52.675Z,14.52
2017-10-02T08:46:20.222Z,8.50
2017-10-02T08:48:47.761Z,9.30
2017-10-02T08:51:15.440Z,11.00
2017-10-02T08:53:43.018Z,12.37
2017-10-02T08:56:10.592Z,9.05
2017-10-02T08:58:39.106Z,17.48
2017-10-02T09:01:06.649Z,11.40
2017-10-02T09:03:34.189Z,11.50
2017-10-02T09:06:02.535Z,3.85
2017-10-02T09:08:30.074Z,4.43
2017-10-02T09:10:57.912Z,6.18
2017-10-02T09:13:25.450Z,7.03
2017-10-02T09:15:53.757Z,3.80
2017-10-02T09:18:21.673Z,14.87
2017-10-02T09:20:49.202Z,6.40
2017-10-02T09:23:16.734Z,6.40
2017-10-02T09:25:44.677Z,5.90
2017-10-02T09:28:12.206Z,6.20
2017-10-02T09:30:39.749Z,6.47
2017-10-02T09:33:07.490Z,5.80
2017-10-02T09:35:35.159Z,8.57
2017-10-02T09:38:02.692Z,5.85
2017-10-02T09:40:34.717Z,3.37
2017-10-02T09:43:02.585Z,8.82
2017-10-02T09:45:30.122Z,9.85
2017-10-02T09:47:57.648Z,6.90
2017-10-02T09:50:26.138Z,7.25
2017-10-02T09:52:54.489Z,5.75
2017-10-02T09:55:22.017Z,6.53
2017-10-02T09:57:49.588Z,5.50
2017-10-02T10:00:17.132Z,18.20
2017-10-02T10:02:44.839Z,17.73
2017-10-02T10:05:12.421Z,19.00
2017-10-02T10:07:40.078Z,14.00
2017-10-02T10:10:08.391Z,10.38
2017-10-02T10:12:36.012Z,14.05
2017-10-02T10:15:04.314Z,7.80
2017-10-02T10:17:31.849Z,4.80
2017-10-02T10:20:00.196Z,4.15
2017-10-02T10:22:27.793Z,7.15
2017-10-02T10:24:56.124Z,5.82
2017-10-02T10:27:24.075Z,3.53
2017-10-02T10:29:51.628Z,6.05
2017-10-02T10:32:19.190Z,4.97
2017-10-02T10:34:46.772Z,6.37
2017-10-02T10:37:14.485Z,5.40
2017-10-02T10:39:42.791Z,7.53
2017-10-02T10:42:10.394Z,7.65
2017-10-02T10:44:37.944Z,5.60
2017-10-02T10:47:05.721Z,3.90
2017-10-02T10:49:33.569Z,4.50
2017-10-02T10:52:01.169Z,3.75
2017-10-02T10:54:29.484Z,4.70
2017-10-02T10:56:57.025Z,4.00
2017-10-02T10:59:24.607Z,4.95
2017-10-02T11:01:52.195Z,4.35
2017-10-02T11:04:20.667Z,4.25
2017-10-02T11:06:48.197Z,3.70
2017-10-02T11:09:15.733Z,4.93
2017-10-02T11:11:44.074Z,2.97
2017-10-02T11:14:11.617Z,3.42
2017-10-02T11:16:39.201Z,3.03
2017-10-02T11:19:06.741Z,3.08
2017-10-02T11:21:34.404Z,3.00
2017-10-02T11:24:01.989Z,3.35
2017-10-02T11:26:29.530Z,3.15
2017-10-02T11:28:57.128Z,3.12
2017-10-02T11:31:24.695Z,3.28
2017-10-02T11:33:53.015Z,4.45
2017-10-02T11:36:23.568Z,4.25
2017-10-02T11:38:51.144Z,4.12
2017-10-02T11:41:18.737Z,4.10
2017-10-02T11:43:46.335Z,3.53
2017-10-02T11:46:13.873Z,3.95
2017-10-02T11:48:41.462Z,3.70
2017-10-02T11:51:09.001Z,5.07
2017-10-02T11:53:36.742Z,5.00
2017-10-02T11:56:04.281Z,4.32
2017-10-02T11:58:32.897Z,7.87
2017-10-02T12:01:00.433Z,6.45
2017-10-02T12:03:28.748Z,10.75
2017-10-02T12:05:56.338Z,10.65
2017-10-02T12:08:23.893Z,7.95
2017-10-02T12:10:51.538Z,10.85
2017-10-02T12:13:19.077Z,14.15
2017-10-02T12:15:47.784Z,11.55
2017-10-02T12:18:15.337Z,15.55
2017-10-02T12:20:42.891Z,10.38
2017-10-02T12:23:10.546Z,13.48
2017-10-02T12:25:38.602Z,9.40
2017-10-02T12:28:06.155Z,11.93
2017-10-02T12:30:33.698Z,11.00
2017-10-02T12:33:02.054Z,13.15
2017-10-02T12:35:29.647Z,21.33
2017-10-02T12:37:58.073Z,14.25
2017-10-02T12:40:25.814Z,10.68
2017-10-02T12:42:53.372Z,10.50
2017-10-02T12:45:20.976Z,13.67
2017-10-02T12:47:48.521Z,13.13
2017-10-02T12:50:16.112Z,14.02
2017-10-02T12:52:43.653Z,10.27
2017-10-02T12:55:11.393Z,12.53
2017-10-02T12:57:38.946Z,13.82
2017-10-02T13:00:09.225Z,12.70
2017-10-02T13:02:36.769Z,14.00
2017-10-02T13:05:04.311Z,13.00
2017-10-02T13:07:31.905Z,11.83
2017-10-02T13:09:59.444Z,12.27
2017-10-02T13:12:27.104Z,14.93
2017-10-02T13:14:54.688Z,9.40
2017-10-02T13:17:22.642Z,16.30
2017-10-02T13:19:50.189Z,18.90
2017-10-02T13:22:17.729Z,11.90
2017-10-02T13:24:45.320Z,12.10
2017-10-02T13:27:12.988Z,13.80
2017-10-02T13:29:44.936Z,12.47
2017-10-02T13:32:12.480Z,12.30
2017-10-02T13:34:40.024Z,14.60
2017-10-02T13:37:07.766Z,12.40
2017-10-02T13:39:36.129Z,14.03
2017-10-02T13:42:03.660Z,12.40
2017-10-02T13:44:35.319Z,15.47
2017-10-02T13:47:02.869Z,13.13
2017-10-02T13:49:30.418Z,12.17
2017-10-02T13:51:58.798Z,14.20
2017-10-02T13:54:26.377Z,10.43
2017-10-02T13:56:54.341Z,17.97
2017-10-02T13:59:21.893Z,16.80
2017-10-02T14:01:49.427Z,16.03
2017-10-02T14:04:17.213Z,13.40
2017-10-02T14:06:44.758Z,12.63
2017-10-02T14:09:12.345Z,14.83
2017-10-02T14:11:41.261Z,14.30
2017-10-02T14:14:08.867Z,11.40
2017-10-02T14:16:36.605Z,14.07
2017-10-02T14:19:04.910Z,16.40
2017-10-02T14:21:32.460Z,16.37
2017-10-02T14:24:00.189Z,13.07
2017-10-02T14:26:28.546Z,16.93
2017-10-02T14:28:56.137Z,12.27
2017-10-02T14:31:23.677Z,15.27
2017-10-02T14:33:51.265Z,12.60
2017-10-02T14:36:19.745Z,15.10
2017-10-02T14:38:49.420Z,13.53
2017-10-02T14:41:16.965Z,14.57
2017-10-02T14:43:44.590Z,13.57
2017-10-02T14:46:12.142Z,14.63
2017-10-02T14:48:40.785Z,13.67
2017-10-02T14:51:08.329Z,14.33
2017-10-02T14:53:35.873Z,14.20
2017-10-02T14:56:03.769Z,16.50
2017-10-02T14:58:31.473Z,14.77
2017-10-02T15:00:59.787Z,14.33
2017-10-02T15:03:27.334Z,15.07
2017-10-02T15:05:54.941Z,12.73
2017-10-02T15:08:22.498Z,12.97
2017-10-02T15:10:50.093Z,15.87
2017-10-02T15:13:18.457Z,17.93
2017-10-02T15:15:47.136Z,15.40
2017-10-02T15:18:14.690Z,14.25
2017-10-02T15:20:42.746Z,19.15
2017-10-02T15:23:10.324Z,16.70
2017-10-02T15:25:37.877Z,12.50
2017-10-02T15:28:05.832Z,17.37
2017-10-02T15:30:33.385Z,13.25
2017-10-02T15:33:00.943Z,15.45
2017-10-02T15:35:28.970Z,14.63
2017-10-02T15:37:57.289Z,16.42
2017-10-02T15:40:25.275Z,14.18
2017-10-02T15:42:52.817Z,18.83
2017-10-02T15:45:20.369Z,14.40
2017-10-02T15:47:48.243Z,14.15
2017-10-02T15:50:19.003Z,21.92
2017-10-02T15:52:46.566Z,18.15
2017-10-02T15:55:14.341Z,19.35
2017-10-02T15:57:41.959Z,14.38
2017-10-02T16:00:09.501Z,15.80
2017-10-02T16:02:37.096Z,18.17
2017-10-02T16:05:04.647Z,19.10
2017-10-02T16:07:32.229Z,19.90
2017-10-02T16:09:59.772Z,15.82
2017-10-02T16:12:27.468Z,12.32
2017-10-02T16:14:55.052Z,14.13
2017-10-02T16:17:23.469Z,19.08
2017-10-02T16:19:51.018Z,13.80
2017-10-02T16:22:18.677Z,20.70
2017-10-02T16:24:46.223Z,16.23
2017-10-02T16:27:13.805Z,19.62
2017-10-02T16:29:41.397Z,18.25
2017-10-02T16:32:08.937Z,22.40
2017-10-02T16:34:36.587Z,18.60
2017-10-02T16:37:05.661Z,17.65
2017-10-02T16:39:33.292Z,15.90
2017-10-02T16:42:00.940Z,17.65
2017-10-02T16:44:28.529Z,16.62
2017-10-02T16:46:56.882Z,15.20
2017-10-02T16:49:24.429Z,13.52
2017-10-02T16:51:52.009Z,14.60
2017-10-02T16:54:19.548Z,20.52
2017-10-02T16:56:47.232Z,13.65
2017-10-02T16:59:14.780Z,19.08
2017-10-02T17:01:42.368Z,14.77
2017-10-02T17:04:10.673Z,16.30
2017-10-02T17:06:38.889Z,16.87
2017-10-02T17:09:06.433Z,20.70
2017-10-02T17:11:33.972Z,21.50
2017-10-02T17:14:02.089Z,18.30
2017-10-02T17:16:29.631Z,16.77
2017-10-02T17:18:57.173Z,16.98
2017-10-02T17:21:25.160Z,16.27
2017-10-02T17:23:52.713Z,17.23
2017-10-02T17:26:20.248Z,18.00
2017-10-02T17:28:47.885Z,15.35
2017-10-02T17:31:16.192Z,17.85
2017-10-02T17:33:43.772Z,17.92
2017-10-02T17:36:11.329Z,18.17
2017-10-02T17:38:39.753Z,12.82
2017-10-02T17:41:07.425Z,15.00
2017-10-02T17:43:35.781Z,17.37
2017-10-02T17:46:03.340Z,21.15
2017-10-02T17:48:34.525Z,13.93
2017-10-02T17:51:02.821Z,16.20
2017-10-02T17:53:30.557Z,18.87
2017-10-02T17:55:58.861Z,15.73
2017-10-02T17:58:26.449Z,18.48
2017-10-02T18:00:53.982Z,15.73
2017-10-02T18:03:22.329Z,21.85
2017-10-02T18:05:50.719Z,15.80
2017-10-02T18:08:19.196Z,17.95
2017-10-02T18:10:48.792Z,17.33
2017-10-02T18:13:16.327Z,16.83
2017-10-02T18:15:43.868Z,13.70
2017-10-02T18:18:11.448Z,17.50
2017-10-02T18:20:39.039Z,18.17
2017-10-02T18:23:07.350Z,22.05
2017-10-02T18:25:35.504Z,21.17
2017-10-02T18:28:03.093Z,15.25
2017-10-02T18:30:30.633Z,21.85
2017-10-02T18:32:58.214Z,17.70
2017-10-02T18:35:25.753Z,18.40
2017-10-02T18:37:53.337Z,22.75
2017-10-02T18:40:21.621Z,19.05
2017-10-02T18:42:49.157Z,14.55
2017-10-02T18:45:16.697Z,16.33
2017-10-02T18:47:45.046Z,19.35
2017-10-02T18:50:12.634Z,21.15
2017-10-02T18:52:40.976Z,16.87
2017-10-02T18:55:08.524Z,22.77
2017-10-02T18:57:36.696Z,22.17
2017-10-02T19:00:04.236Z,17.92
2017-10-02T19:02:31.778Z,20.42
2017-10-02T19:04:59.561Z,17.48
2017-10-02T19:07:27.092Z,18.10
2017-10-02T19:09:55.401Z,21.02
2017-10-02T19:12:23.751Z,22.50
2017-10-02T19:14:52.064Z,16.67
2017-10-02T19:17:19.646Z,21.37
2017-10-02T19:19:47.186Z,20.48
2017-10-02T19:22:14.832Z,22.65
2017-10-02T19:24:42.377Z,21.25
2017-10-02T19:27:09.995Z,24.55
2017-10-02T19:29:37.645Z,21.23
2017-10-02T19:32:05.236Z,21.55
2017-10-02T19:34:33.561Z,17.25
2017-10-02T19:37:01.154Z,17.05
2017-10-02T19:39:28.920Z,18.55
2017-10-02T19:41:56.464Z,19.15
2017-10-02T19:44:24.085Z,21.30
2017-10-02T19:46:51.625Z,23.87
2017-10-02T19:49:19.938Z,16.02
2017-10-02T19:51:47.534Z,23.15
2017-10-02T19:54:15.127Z,18.60
2017-10-02T19:56:43.430Z,22.05
2017-10-02T19:59:12.458Z,20.83
2017-10-02T20:01:39.999Z,22.10
2017-10-02T20:04:07.545Z,17.10
2017-10-02T20:06:35.138Z,19.77
2017-10-02T20:09:02.717Z,24.60
2017-10-02T20:11:30.261Z,25.27
2017-10-02T20:13:58.211Z,22.25
2017-10-02T20:16:25.745Z,24.77
2017-10-02T20:18:53.291Z,23.38
2017-10-02T20:21:21.703Z,25.12
2017-10-02T20:23:49.285Z,18.50
2017-10-02T20:26:16.829Z,23.58
2017-10-02T20:28:44.423Z,19.42
2017-10-02T20:31:11.961Z,18.50
2017-10-02T20:33:39.832Z,22.58
2017-10-02T20:36:07.369Z,17.33
2017-10-02T20:38:34.913Z,22.23
2017-10-02T20:41:07.533Z,24.40
2017-10-02T20:43:35.116Z,18.83
2017-10-02T20:46:02.656Z,24.58
2017-10-02T20:48:30.422Z,19.50
2017-10-02T20:50:57.954Z,22.92
2017-10-02T20:53:26.265Z,24.67
2017-10-02T20:55:53.845Z,21.73
2017-10-02T20:58:21.894Z,25.40
2017-10-02T21:00:49.432Z,22.55
2017-10-02T21:03:16.968Z,23.25
2017-10-02T21:05:44.769Z,24.05
2017-10-02T21:08:12.347Z,21.75
2017-10-02T21:10:39.881Z,28.30
2017-10-02T21:13:07.476Z,23.92
2017-10-02T21:15:35.078Z,20.40
2017-10-02T21:18:02.675Z,22.25
2017-10-02T21:20:30.643Z,20.52
2017-10-02T21:22:58.181Z,24.80
2017-10-02T21:25:26.988Z,17.92
2017-10-02T21:27:54.533Z,22.35
2017-10-02T21:30:22.836Z,22.92
2017-10-02T21:32:50.418Z,22.08
2017-10-02T21:35:18.492Z,23.92
2017-10-02T21:37:46.031Z,23.87
2017-10-02T21:40:13.693Z,27.52
2017-10-02T21:42:41.272Z,21.87
2017-10-02T21:45:08.808Z,22.13
2017-10-02T21:47:36.389Z,18.83
2017-10-02T21:50:04.072Z,28.52
2017-10-02T21:52:32.443Z,26.12
2017-10-02T21:55:00.794Z,23.38
2017-10-02T21:57:28.332Z,19.92
2017-10-02T21:59:55.946Z,24.35
2017-10-02T22:02:24.258Z,21.20
2017-10-02T22:04:51.801Z,24.90
2017-10-02T22:07:19.576Z,24.77
2017-10-02T22:09:47.454Z,29.40
2017-10-02T22:12:14.981Z,30.35
2017-10-02T22:14:43.280Z,27.55
2017-10-02T22:17:12.113Z,25.25
2017-10-02T22:19:40.117Z,26.33
2017-10-02T22:22:08.455Z,24.27
2017-10-02T22:24:35.990Z,32.78
2017-10-02T22:27:05.822Z,18.90
2017-10-02T22:29:33.357Z,27.17
2017-10-02T22:32:00.941Z,25.65
2017-10-02T22:34:28.474Z,24.17
2017-10-02T22:36:56.066Z,26.85
2017-10-02T22:39:23.649Z,31.98
2017-10-02T22:41:51.180Z,24.20
2017-10-02T22:44:19.148Z,30.05
2017-10-02T22:46:46.696Z,30.67
2017-10-02T22:49:14.573Z,32.25
2017-10-02T22:51:42.119Z,27.65
2017-10-02T22:54:09.661Z,27.25
2017-10-02T22:56:37.250Z,22.83
2017-10-02T22:59:05.026Z,29.37
2017-10-02T23:01:32.565Z,27.55
2017-10-02T23:04:00.909Z,25.98
2017-10-02T23:06:29.216Z,27.30
2017-10-02T23:08:56.790Z,27.08
2017-10-02T23:11:24.330Z,23.73
2017-10-02T23:13:52.060Z,28.80
2017-10-02T23:16:20.368Z,30.85
2017-10-02T23:18:47.909Z,25.02
2017-10-02T23:21:18.389Z,18.70
2017-10-02T23:23:45.917Z,22.62
2017-10-02T23:26:13.493Z,22.62
2017-10-02T23:28:41.031Z,25.67
2017-10-02T23:31:08.607Z,19.62
2017-10-02T23:33:36.142Z,24.80
2017-10-02T23:36:03.772Z,24.10
2017-10-02T23:38:31.306Z,20.02
2017-10-02T23:40:59.168Z,23.95
2017-10-02T23:43:26.702Z,24.98
2017-10-02T23:45:54.237Z,19.08
2017-10-02T23:48:22.952Z,25.90
2017-10-02T23:50:50.487Z,28.12
2017-10-02T23:53:18.784Z,21.70
2017-10-02T23:55:46.414Z,27.92
2017-10-02T23:58:14.756Z,24.30
